Time;durP1;ratioP1;P1;durP2;ratioP2;P2;SDS_P1;SDS_P2;PMS_P1;PMS_P2;Temp;Humidity;BMP_temperature;BMP_pressure;BME280_temperature;BME280_humidity;BME280_pressure;Samples;Min_cycle;Max_cycle;Signal;HPM_P1;HPM_P2
2022/01/20 00:00:18;;;;;;;9.10;2.63;;;;;;;19.11;49.61;101173.78;5031348;28;20518;-61
2022/01/20 00:02:45;;;;;;;7.40;2.83;;;;;;;19.00;50.51;101171.78;5035099;28;20527;-60
2022/01/20 00:25:55;;;;;;;8.70;2.70;;;;;;;19.10;52.76;101189.28;5050906;28;20446;-60
2022/01/20 00:28:27;;;;;;;14.43;3.60;;;;;;;19.06;53.82;101185.47;5031898;28;20176;-60
2022/01/20 00:31:06;;;;;;;9.90;3.90;;;;;;;19.13;53.20;101194.31;5049871;28;20552;-60
2022/01/20 00:33:42;;;;;;;14.73;3.57;;;;;;;19.11;52.84;101196.69;5029949;28;20425;-60
2022/01/20 00:38:37;;;;;;;7.20;3.20;;;;;;;19.05;53.79;101191.56;5050547;28;20426;-60
2022/01/20 00:41:02;;;;;;;12.20;3.40;;;;;;;19.15;53.97;101202.50;5026359;28;20200;-61
2022/01/20 00:43:28;;;;;;;7.10;3.30;;;;;;;19.08;55.26;101203.16;5031605;28;20422;-61
2022/01/20 00:45:53;;;;;;;10.50;2.90;;;;;;;19.15;54.48;101213.94;5048273;28;20180;-60
2022/01/20 00:48:22;;;;;;;8.77;3.30;;;;;;;19.07;54.43;101217.81;5051346;28;20187;-61
2022/01/20 00:50:47;;;;;;;9.93;3.30;;;;;;;19.05;53.17;101223.88;5051211;28;20204;-60
2022/01/20 00:53:13;;;;;;;9.47;2.60;;;;;;;19.00;52.57;101229.03;5051360;28;20422;-61
2022/01/20 00:55:39;;;;;;;7.37;3.17;;;;;;;18.91;52.42;101226.31;5051233;28;20229;-60
2022/01/20 00:58:04;;;;;;;7.83;3.20;;;;;;;18.99;51.99;101228.22;5051230;28;20187;-59
2022/01/20 01:00:30;;;;;;;8.57;4.23;;;;;;;19.06;51.73;101236.19;5049588;28;20425;-60
2022/01/20 01:02:56;;;;;;;11.13;3.07;;;;;;;19.07;51.72;101235.81;5047038;28;20285;-60
2022/01/20 01:05:21;;;;;;;9.00;3.80;;;;;;;18.99;51.85;101227.38;5048458;28;20819;-60
2022/01/20 01:07:49;;;;;;;8.50;3.07;;;;;;;18.94;51.86;101227.63;5049807;28;20533;-60
2022/01/20 01:10:19;;;;;;;13.80;3.40;;;;;;;18.85;51.04;101242.06;5046673;28;20212;-60
2022/01/20 01:15:17;;;;;;;5.00;2.97;;;;;;;18.76;50.32;101238.50;5021246;28;20442;-60
2022/01/20 01:20:29;;;;;;;13.43;3.47;;;;;;;18.67;49.84;101246.38;5049264;28;20467;-61
2022/01/20 01:22:55;;;;;;;6.13;2.83;;;;;;;18.70;49.92;101247.69;5049376;28;20426;-60
2022/01/20 01:25:20;;;;;;;8.23;3.20;;;;;;;18.68;50.69;101250.91;5031829;28;20426;-60
2022/01/20 01:27:46;;;;;;;6.63;2.97;;;;;;;18.73;50.27;101256.41;5047686;28;20692;-60
2022/01/20 01:30:39;;;;;;;7.47;3.13;;;;;;;18.74;50.43;101255.19;5047650;28;20679;-60
2022/01/20 01:33:06;;;;;;;6.80;3.10;;;;;;;18.76;50.72;101257.72;5030003;28;20192;-60
2022/01/20 01:35:33;;;;;;;3.67;2.20;;;;;;;18.75;50.51;101256.00;5044036;28;21012;-60
2022/01/20 01:40:31;;;;;;;5.57;2.80;;;;;;;18.75;51.20;101250.28;5040692;28;20442;-60
2022/01/20 01:42:57;;;;;;;6.33;2.70;;;;;;;18.77;50.65;101245.88;5049253;28;20449;-60
2022/01/20 01:45:36;;;;;;;8.87;2.73;;;;;;;18.74;51.24;101249.47;5048256;28;20979;-60
2022/01/20 01:48:02;;;;;;;12.27;2.90;;;;;;;18.76;50.80;101243.41;5050070;28;20270;-60
2022/01/20 01:50:28;;;;;;;7.63;3.20;;;;;;;18.74;51.32;101243.75;5049309;28;20505;-60
2022/01/20 01:52:54;;;;;;;4.37;2.70;;;;;;;18.78;50.85;101233.28;5049314;28;21028;-60
2022/01/20 01:55:20;;;;;;;5.13;3.17;;;;;;;18.75;51.33;101233.97;5049738;28;20596;-60
2022/01/20 01:57:45;;;;;;;8.17;3.03;;;;;;;18.75;51.41;101233.97;5049550;28;20493;-60
2022/01/20 02:00:14;;;;;;;5.03;2.40;;;;;;;18.69;51.58;101228.84;5049629;28;20198;-60
2022/01/20 02:02:42;;;;;;;9.53;2.93;;;;;;;18.70;51.78;101222.78;5049036;28;20636;-60
2022/01/20 02:05:10;;;;;;;4.97;2.37;;;;;;;18.68;51.25;101230.91;5048905;28;20418;-60
2022/01/20 02:18:50;;;;;;;6.57;2.53;;;;;;;18.66;51.72;101227.53;5048870;28;20441;-60
2022/01/20 02:21:15;;;;;;;6.90;3.10;;;;;;;18.67;51.51;101225.53;5048991;28;20513;-60
2022/01/20 02:23:41;;;;;;;5.50;2.73;;;;;;;18.64;51.57;101229.09;5049556;28;20493;-60
2022/01/20 02:26:06;;;;;;;6.50;3.00;;;;;;;18.69;51.66;101229.69;5049218;28;20186;-60
2022/01/20 02:28:32;;;;;;;4.53;2.37;;;;;;;18.64;51.75;101234.81;5049356;28;20628;-60
2022/01/20 02:30:57;;;;;;;3.73;2.23;;;;;;;18.64;52.33;101235.66;5048695;28;20196;-60
2022/01/20 02:33:24;;;;;;;5.20;1.83;;;;;;;18.67;51.62;101231.25;5034408;28;20234;-60
2022/01/20 02:35:57;;;;;;;3.63;2.17;;;;;;;18.62;51.95;101235.16;5045891;28;20184;-60
2022/01/20 02:39:12;;;;;;;5.00;2.17;;;;;;;18.64;52.82;101224.22;5048922;28;20870;-60
2022/01/20 02:46:40;;;;;;;4.50;2.50;;;;;;;18.63;51.78;101236.00;5048958;28;20397;-60
2022/01/20 02:49:07;;;;;;;5.93;2.60;;;;;;;18.63;51.92;101236.00;5048536;28;20407;-60
2022/01/20 02:51:33;;;;;;;4.50;2.40;;;;;;;18.63;51.86;101230.28;5031310;28;20710;-60
2022/01/20 02:53:58;;;;;;;4.27;2.17;;;;;;;18.61;52.30;101224.13;5049010;28;20548;-60
2022/01/20 02:56:24;;;;;;;5.83;2.37;;;;;;;18.62;51.69;101222.91;5048601;28;20176;-60
2022/01/20 02:58:49;;;;;;;4.13;2.50;;;;;;;18.60;52.27;101219.56;5042557;28;20176;-60
2022/01/20 03:01:15;;;;;;;3.30;2.07;;;;;;;18.57;52.14;101221.13;5043555;28;20192;-60
2022/01/20 03:03:40;;;;;;;3.37;1.90;;;;;;;18.64;51.41;101218.50;5039477;28;20611;-60
2022/01/20 03:06:06;;;;;;;6.40;2.40;;;;;;;18.63;52.40;101225.44;5010909;28;20196;-61
2022/01/20 03:08:31;;;;;;;5.97;2.40;;;;;;;18.63;51.46;101219.69;5031301;28;20179;-60
2022/01/20 03:10:57;;;;;;;4.33;2.60;;;;;;;18.61;51.91;101224.13;5034333;28;20199;-60
2022/01/20 03:13:22;;;;;;;3.90;1.80;;;;;;;18.60;51.60;101217.53;5045586;28;20183;-60
2022/01/20 03:15:48;;;;;;;4.33;2.37;;;;;;;18.61;52.07;101221.25;5047591;28;20237;-60
2022/01/20 03:18:13;;;;;;;4.90;2.57;;;;;;;18.62;52.23;101223.72;5024435;28;20186;-60
2022/01/20 03:20:39;;;;;;;5.00;2.33;;;;;;;18.62;51.79;101222.91;5048822;28;20175;-60
2022/01/20 03:23:04;;;;;;;4.53;2.27;;;;;;;18.55;52.08;101226.38;5048503;28;20237;-60
2022/01/20 03:25:29;;;;;;;4.10;2.20;;;;;;;18.53;52.07;101225.91;5048267;28;20172;-60
2022/01/20 03:27:55;;;;;;;3.70;2.20;;;;;;;18.58;51.49;101217.09;5048899;28;20266;-60
2022/01/20 03:30:21;;;;;;;4.30;1.73;;;;;;;18.61;51.69;101219.22;5048137;28;20663;-60
2022/01/20 03:32:47;;;;;;;3.10;1.70;;;;;;;18.55;51.67;101214.94;5039024;28;20192;-60
2022/01/20 03:35:13;;;;;;;5.63;2.13;;;;;;;18.56;51.83;101212.91;5040586;28;20640;-60
2022/01/20 03:37:39;;;;;;;4.10;2.50;;;;;;;18.60;51.85;101210.97;5030910;28;20782;-60
2022/01/20 03:40:05;;;;;;;5.60;2.40;;;;;;;18.55;52.23;101203.50;5047857;28;20414;-60
2022/01/20 03:42:31;;;;;;;3.20;2.10;;;;;;;18.58;51.43;101202.78;5048289;28;20194;-60
2022/01/20 03:44:56;;;;;;;3.90;2.20;;;;;;;18.54;51.82;101198.97;5048522;28;20429;-60
2022/01/20 03:47:24;;;;;;;3.43;2.03;;;;;;;18.50;52.01;101206.59;5050241;28;20199;-60
2022/01/20 03:50:08;;;;;;;3.90;2.03;;;;;;;18.54;51.68;101204.69;5052247;28;20175;-60
2022/01/20 03:52:33;;;;;;;5.83;2.17;;;;;;;18.56;51.59;101196.56;5051545;28;20398;-60
2022/01/20 03:54:59;;;;;;;3.20;1.97;;;;;;;18.52;51.92;101204.19;5052044;28;20418;-60
2022/01/20 03:57:24;;;;;;;3.17;1.93;;;;;;;18.54;51.61;101190.41;5051355;28;20202;-60
2022/01/20 03:59:50;;;;;;;3.57;2.37;;;;;;;18.51;51.80;101198.88;5051607;28;20575;-60
2022/01/20 04:02:15;;;;;;;4.47;1.83;;;;;;;18.52;51.85;101211.97;5051445;28;20224;-60
2022/01/20 04:04:41;;;;;;;5.17;2.43;;;;;;;18.50;51.68;101218.03;5051950;28;20226;-60
2022/01/20 04:07:06;;;;;;;3.33;1.90;;;;;;;18.55;51.63;101223.50;5052134;28;20199;-60
2022/01/20 04:09:32;;;;;;;3.33;2.00;;;;;;;18.54;51.65;101227.56;5051354;28;20187;-60
2022/01/20 04:11:57;;;;;;;2.80;1.80;;;;;;;18.52;51.85;101224.22;5051381;28;20614;-60
2022/01/20 04:14:25;;;;;;;6.27;2.20;;;;;;;18.53;51.77;101223.06;5051633;28;20659;-60
2022/01/20 04:17:03;;;;;;;5.03;2.10;;;;;;;18.51;51.58;101216.03;5051998;28;20156;-60
2022/01/20 04:19:32;;;;;;;4.40;2.40;;;;;;;18.53;51.83;101213.63;5051304;28;20399;-60
2022/01/20 04:21:58;;;;;;;4.40;1.97;;;;;;;18.53;52.00;101225.91;5051002;28;20398;-60
2022/01/20 04:24:24;;;;;;;2.73;1.60;;;;;;;18.50;51.90;101218.03;5052071;28;20743;-60
2022/01/20 04:26:49;;;;;;;4.00;2.03;;;;;;;18.53;51.79;101225.06;5051167;28;20475;-60
2022/01/20 04:29:16;;;;;;;4.97;2.30;;;;;;;18.53;51.85;101230.78;5051211;28;20259;-60
2022/01/20 04:31:41;;;;;;;2.47;1.70;;;;;;;18.51;52.05;101231.13;5050580;28;20285;-60
2022/01/20 04:34:07;;;;;;;2.93;1.80;;;;;;;18.52;51.62;101231.97;5035165;28;20874;-60
2022/01/20 04:36:36;;;;;;;6.40;2.10;;;;;;;18.51;51.70;101228.28;5051036;28;20191;-60
2022/01/20 04:39:03;;;;;;;3.67;2.30;;;;;;;18.52;51.84;101234.84;5050563;28;20183;-61
2022/01/20 04:41:29;;;;;;;3.50;2.00;;;;;;;18.55;51.66;101252.09;5051347;28;20410;-60
2022/01/20 04:43:56;;;;;;;3.60;2.33;;;;;;;18.53;51.67;101257.38;5051340;28;20418;-60
2022/01/20 04:46:39;;;;;;;3.27;1.87;;;;;;;18.53;51.62;101254.50;5050844;28;20411;-60
2022/01/20 04:57:21;;;;;;;2.60;1.90;;;;;;;18.50;51.49;101232.34;5030676;28;20485;-60
2022/01/20 04:59:48;;;;;;;4.47;2.10;;;;;;;18.48;51.45;101231.03;5030606;28;20807;-60
2022/01/20 05:02:13;;;;;;;2.93;1.80;;;;;;;18.49;51.60;101236.38;5044873;28;20461;-60
2022/01/20 05:04:39;;;;;;;3.70;2.00;;;;;;;18.55;51.73;101229.22;5050642;28;20433;-60
2022/01/20 05:07:06;;;;;;;3.77;2.07;;;;;;;18.53;51.71;101230.78;5050328;28;20362;-60
2022/01/20 05:09:32;;;;;;;2.93;1.90;;;;;;;18.51;51.76;101234.00;5037880;28;20471;-60
2022/01/20 05:12:01;;;;;;;2.63;1.60;;;;;;;18.51;52.16;101241.75;5032664;28;20502;-60
2022/01/20 05:14:27;;;;;;;3.30;2.27;;;;;;;18.52;51.48;101237.69;5041250;28;20519;-60
2022/01/20 05:16:53;;;;;;;2.80;1.47;;;;;;;18.51;51.91;101239.72;5047204;28;20430;-60
2022/01/20 05:19:19;;;;;;;3.37;1.80;;;;;;;18.51;51.30;101239.72;5045968;28;20441;-60
2022/01/20 05:21:45;;;;;;;3.60;2.10;;;;;;;18.50;51.65;101234.34;5050304;28;20410;-60
2022/01/20 05:24:10;;;;;;;2.97;1.80;;;;;;;18.48;51.67;101231.03;5050709;28;20917;-60
2022/01/20 05:26:36;;;;;;;3.93;2.07;;;;;;;18.50;51.62;101232.34;5049984;28;20176;-61
2022/01/20 05:29:01;;;;;;;3.27;2.17;;;;;;;18.48;51.42;101229.00;5049915;28;20180;-60
2022/01/20 05:31:26;;;;;;;3.80;2.17;;;;;;;18.51;51.96;101228.28;5048900;28;20320;-60
2022/01/20 05:33:52;;;;;;;3.60;2.00;;;;;;;18.50;51.55;101243.78;5014677;28;20188;-60
2022/01/20 05:36:17;;;;;;;2.90;1.60;;;;;;;18.53;51.48;101236.50;5049646;28;20190;-60
2022/01/20 05:38:43;;;;;;;4.00;2.03;;;;;;;18.51;51.74;101228.28;5050233;28;20176;-60
2022/01/20 05:41:08;;;;;;;3.70;2.07;;;;;;;18.48;51.57;101223.28;5050128;28;20191;-60
2022/01/20 05:43:34;;;;;;;4.00;1.87;;;;;;;18.49;52.03;101210.66;5049852;28;20225;-60
2022/01/20 05:46:02;;;;;;;3.90;2.20;;;;;;;18.51;51.78;101213.97;5031449;28;20227;-60
2022/01/20 05:48:35;;;;;;;4.47;2.17;;;;;;;18.52;51.93;101215.63;5049609;28;20175;-60
2022/01/20 05:51:01;;;;;;;3.07;1.77;;;;;;;18.50;51.68;101203.75;5049705;28;20446;-60
2022/01/20 05:53:26;;;;;;;3.60;2.13;;;;;;;18.51;51.90;101222.56;5049294;28;20472;-60
2022/01/20 05:55:52;;;;;;;4.10;1.93;;;;;;;18.55;51.60;101234.09;5049783;28;20426;-61
2022/01/20 05:58:19;;;;;;;3.13;1.70;;;;;;;18.56;51.31;101235.78;5049304;28;20203;-60
2022/01/20 06:00:44;;;;;;;4.27;1.70;;;;;;;18.53;51.97;101236.50;5031522;28;20654;-60
2022/01/20 06:05:54;;;;;;;2.67;1.60;;;;;;;18.52;51.53;101244.22;5049191;28;20302;-60
2022/01/20 06:08:21;;;;;;;3.00;1.87;;;;;;;18.50;51.80;101235.19;5049166;28;20472;-60
2022/01/20 06:10:46;;;;;;;3.30;1.77;;;;;;;18.50;51.96;101237.19;5049091;28;20453;-60
2022/01/20 06:13:12;;;;;;;3.37;1.90;;;;;;;18.48;51.79;101236.75;5049178;28;20172;-60
2022/01/20 06:15:37;;;;;;;2.90;1.90;;;;;;;18.50;51.45;101252.34;5049378;28;20535;-59
2022/01/20 06:18:03;;;;;;;3.40;2.20;;;;;;;18.52;51.65;101252.81;5049314;28;20186;-60
2022/01/20 06:20:28;;;;;;;3.73;1.47;;;;;;;18.53;51.29;101263.09;5048705;28;20171;-60
2022/01/20 06:22:54;;;;;;;3.93;1.80;;;;;;;18.51;51.45;101261.78;5049058;28;20174;-59
2022/01/20 06:25:19;;;;;;;3.50;1.90;;;;;;;18.51;51.51;101256.88;5049128;28;20167;-60
2022/01/20 06:27:45;;;;;;;3.40;1.80;;;;;;;18.51;51.40;101251.16;5049149;28;20222;-60
2022/01/20 06:30:11;;;;;;;3.50;1.67;;;;;;;18.50;51.55;101263.78;5048921;28;20206;-60
2022/01/20 06:32:36;;;;;;;2.33;1.50;;;;;;;18.52;51.56;101249.94;5041059;28;20718;-60
2022/01/20 06:35:02;;;;;;;3.73;2.40;;;;;;;18.55;51.21;101251.25;5039654;28;20422;-60
2022/01/20 06:37:30;;;;;;;2.50;1.70;;;;;;;18.53;51.37;101245.06;5049132;28;20190;-61
2022/01/20 06:39:55;;;;;;;2.70;1.63;;;;;;;18.51;51.58;101251.16;5048946;28;20270;-60
2022/01/20 06:42:21;;;;;;;2.57;1.57;;;;;;;18.53;51.42;101243.06;5048454;28;20421;-59
2022/01/20 06:44:46;;;;;;;3.10;2.00;;;;;;;18.52;51.89;101229.94;5049350;28;20168;-59
2022/01/20 06:47:12;;;;;;;2.60;1.73;;;;;;;18.56;51.43;101230.06;5033300;28;20184;-59
2022/01/20 06:49:37;;;;;;;3.47;1.80;;;;;;;18.49;51.83;101224.09;5029220;28;20192;-59
2022/01/20 06:52:03;;;;;;;2.83;1.77;;;;;;;18.48;51.63;101229.00;5028751;28;20203;-59
2022/01/20 06:54:31;;;;;;;2.53;1.70;;;;;;;18.53;51.58;101231.63;5028751;28;20176;-59
2022/01/20 06:56:58;;;;;;;2.70;1.73;;;;;;;18.51;51.54;101238.91;5010852;28;20172;-60
2022/01/20 06:59:24;;;;;;;3.90;1.63;;;;;;;18.53;52.22;101234.50;5028345;28;20426;-60
2022/01/20 07:01:49;;;;;;;3.00;1.43;;;;;;;18.51;52.05;101234.00;5039880;28;20572;-60
2022/01/20 07:04:15;;;;;;;3.00;1.63;;;;;;;18.50;51.45;101255.22;5048910;28;20203;-59
2022/01/20 07:06:41;;;;;;;2.60;1.90;;;;;;;18.54;51.44;101252.47;5049309;28;20300;-60
2022/01/20 07:09:10;;;;;;;3.93;1.80;;;;;;;18.54;51.36;101253.31;5045498;28;20651;-59
2022/01/20 07:11:37;;;;;;;3.00;1.57;;;;;;;18.51;51.57;101264.63;5030790;28;20253;-59
2022/01/20 07:14:02;;;;;;;2.93;1.77;;;;;;;18.51;51.72;101262.59;5030834;28;20779;-59
2022/01/20 07:16:28;;;;;;;2.60;1.73;;;;;;;18.52;51.38;101281.41;5012883;28;20423;-60
2022/01/20 07:18:54;;;;;;;2.90;1.50;;;;;;;18.53;51.71;101283.09;5040033;28;20179;-59
2022/01/20 07:21:20;;;;;;;2.87;2.10;;;;;;;18.51;51.80;101285.47;5037351;28;20518;-59
2022/01/20 07:23:45;;;;;;;2.70;1.70;;;;;;;18.53;51.86;101293.69;5014724;28;20244;-60
2022/01/20 07:26:11;;;;;;;3.80;1.70;;;;;;;18.53;51.44;101311.69;5032894;28;20255;-59
2022/01/20 07:28:36;;;;;;;4.30;1.87;;;;;;;18.59;51.12;101310.25;5031087;28;20210;-60
2022/01/20 07:31:02;;;;;;;5.13;1.93;;;;;;;18.49;50.84;101307.88;5050917;28;20208;-59
2022/01/20 07:33:27;;;;;;;8.83;5.03;;;;;;;18.07;48.15;101311.22;5037133;28;20242;-60
2022/01/20 07:35:53;;;;;;;9.83;5.30;;;;;;;18.16;48.60;101323.41;5048829;28;20180;-59
2022/01/20 07:38:18;;;;;;;14.20;5.83;;;;;;;18.60;48.54;101328.25;5050229;28;20190;-59
2022/01/20 07:40:44;;;;;;;11.13;5.73;;;;;;;18.93;48.88;101337.56;5050392;28;20651;-58
2022/01/20 07:43:09;;;;;;;10.77;6.43;;;;;;;18.96;50.33;101348.28;5050804;28;20184;-61
2022/01/20 07:45:36;;;;;;;13.83;5.53;;;;;;;19.13;50.35;101340.28;5051655;28;20179;-61
2022/01/20 07:48:01;;;;;;;11.77;5.97;;;;;;;19.19;50.13;101350.28;5051979;28;20184;-61
2022/01/20 07:50:27;;;;;;;7.87;5.13;;;;;;;19.27;51.51;101343.63;5051442;28;20464;-58
2022/01/20 07:52:52;;;;;;;7.63;5.67;;;;;;;19.28;51.12;101342.44;5051110;28;20496;-60
2022/01/20 07:55:18;;;;;;;8.70;5.20;;;;;;;19.17;51.53;101341.22;5032236;28;20654;-58
2022/01/20 07:57:43;;;;;;;9.57;6.10;;;;;;;19.28;51.81;101356.75;5051435;28;20195;-58
2022/01/20 08:00:09;;;;;;;8.00;5.13;;;;;;;19.26;51.79;101359.13;5050876;28;20179;-59
2022/01/20 08:02:34;;;;;;;12.67;4.50;;;;;;;19.23;52.26;101362.72;5051389;28;20780;-61
2022/01/20 08:05:00;;;;;;;8.10;5.00;;;;;;;19.26;51.62;101352.59;5050817;28;20180;-58
2022/01/20 08:07:25;;;;;;;13.00;4.90;;;;;;;19.47;52.42;101353.25;5043451;28;20231;-59
2022/01/20 08:09:57;;;;;;;7.43;4.20;;;;;;;19.61;51.96;101345.09;5042816;28;20234;-59
2022/01/20 08:12:23;;;;;;;6.20;4.40;;;;;;;19.50;52.28;101339.03;5032510;28;20192;-59
2022/01/20 08:14:49;;;;;;;9.27;5.00;;;;;;;19.48;53.28;101337.72;5040985;28;20438;-59
2022/01/20 08:17:14;;;;;;;7.17;4.43;;;;;;;19.45;53.39;101341.31;5047357;28;20545;-58
2022/01/20 08:19:39;;;;;;;8.33;4.60;;;;;;;19.45;54.10;101349.91;5035725;28;20580;-60
2022/01/20 08:22:05;;;;;;;8.03;5.07;;;;;;;19.51;54.29;101337.84;5051072;28;20235;-59
2022/01/20 08:24:30;;;;;;;10.10;4.87;;;;;;;19.49;54.17;101351.69;5043410;28;20184;-60
2022/01/20 08:26:56;;;;;;;7.80;4.40;;;;;;;19.52;54.10;101347.28;5032639;28;20241;-59
2022/01/20 08:29:21;;;;;;;7.30;4.57;;;;;;;19.43;54.42;101352.31;5032860;28;20766;-60
2022/01/20 08:31:47;;;;;;;8.33;4.40;;;;;;;19.31;53.72;101360.94;5046615;28;20540;-59
2022/01/20 08:34:12;;;;;;;10.23;4.63;;;;;;;19.25;51.52;101370.94;5030645;28;20544;-61
2022/01/20 08:36:37;;;;;;;6.40;4.30;;;;;;;19.12;49.95;101386.44;5051411;28;20179;-59
2022/01/20 08:39:10;;;;;;;6.00;3.80;;;;;;;19.01;49.37;101388.13;5049805;28;20737;-59
2022/01/20 08:41:35;;;;;;;6.10;4.10;;;;;;;18.92;48.70;101391.06;5041302;28;20179;-59
2022/01/20 08:44:01;;;;;;;5.63;4.03;;;;;;;18.83;49.07;101389.53;5030954;28;20882;-59
2022/01/20 08:46:26;;;;;;;6.33;4.10;;;;;;;18.87;49.89;101397.03;5031291;28;20192;-59
2022/01/20 08:48:52;;;;;;;12.00;5.20;;;;;;;18.86;48.71;101389.66;5034607;28;20544;-59
2022/01/20 08:51:17;;;;;;;9.27;6.20;;;;;;;18.86;48.78;101392.50;5050706;28;20195;-59
2022/01/20 08:53:43;;;;;;;8.27;6.00;;;;;;;18.79;47.47;101386.56;5030526;28;20188;-59
2022/01/20 08:56:08;;;;;;;9.70;5.87;;;;;;;18.67;48.06;101392.25;5046206;28;20247;-59
2022/01/20 08:58:34;;;;;;;7.83;5.97;;;;;;;18.64;48.77;101394.97;5050934;28;20183;-60
2022/01/20 09:01:00;;;;;;;17.43;5.93;;;;;;;18.68;48.96;101393.94;5034872;28;20183;-58
2022/01/20 09:03:25;;;;;;;18.33;5.40;;;;;;;18.68;49.32;101413.97;5050403;28;20223;-59
2022/01/20 09:05:51;;;;;;;13.43;6.10;;;;;;;18.63;50.01;101408.47;5047095;28;20456;-59
2022/01/20 09:08:17;;;;;;;15.67;6.87;;;;;;;18.66;47.92;101430.63;5050407;28;20194;-59
2022/01/20 09:10:51;;;;;;;11.80;6.20;;;;;;;18.62;48.49;101441.09;5049938;28;20203;-58
2022/01/20 09:16:00;;;;;;;11.00;5.40;;;;;;;18.72;48.76;101420.63;5031479;28;20406;-59
2022/01/20 09:18:26;;;;;;;13.63;5.97;;;;;;;18.73;49.00;101418.59;5047066;28;20434;-59
2022/01/20 09:20:51;;;;;;;11.90;5.83;;;;;;;18.77;49.45;101420.38;5045827;28;20183;-58
2022/01/20 09:23:17;;;;;;;9.90;5.47;;;;;;;18.75;49.33;101419.91;5048509;28;20187;-59
2022/01/20 09:25:42;;;;;;;12.73;5.77;;;;;;;18.79;49.14;101403.72;5050505;28;20549;-58
2022/01/20 09:28:08;;;;;;;11.70;6.07;;;;;;;18.80;49.02;101396.81;5029075;28;20177;-58
2022/01/20 09:30:35;;;;;;;13.73;6.03;;;;;;;18.74;49.57;101392.50;5049006;28;20552;-59
2022/01/20 09:33:25;;;;;;;9.23;4.87;;;;;;;18.81;49.30;101407.03;5038041;28;20297;-58
2022/01/20 09:35:50;;;;;;;11.20;5.30;;;;;;;18.75;49.78;101401.91;5047212;28;20442;-58
2022/01/20 09:38:16;;;;;;;8.03;4.93;;;;;;;18.75;50.11;101402.75;5032560;28;20438;-58
2022/01/20 09:40:42;;;;;;;8.70;4.77;;;;;;;18.80;49.98;101401.69;5049836;28;20195;-58
2022/01/20 09:43:10;;;;;;;8.67;4.50;;;;;;;18.74;50.48;101401.09;5049014;28;20199;-60
2022/01/20 09:45:36;;;;;;;7.27;4.80;;;;;;;18.79;49.98;101402.88;5049121;28;20446;-58
2022/01/20 09:48:01;;;;;;;9.20;5.20;;;;;;;18.75;50.32;101399.91;5050038;28;20418;-58
2022/01/20 09:50:27;;;;;;;9.60;4.70;;;;;;;18.77;50.02;101397.50;5049556;28;20210;-59
2022/01/20 09:52:55;;;;;;;9.20;4.40;;;;;;;18.80;50.80;101393.09;5049737;28;20171;-59
2022/01/20 09:55:21;;;;;;;10.53;5.10;;;;;;;18.77;50.45;101385.25;5048950;28;20321;-59
2022/01/20 09:57:46;;;;;;;12.37;4.67;;;;;;;18.79;50.48;101386.56;5049755;28;20437;-58
2022/01/20 10:00:13;;;;;;;9.53;5.10;;;;;;;18.79;50.43;101395.13;5049518;28;20182;-59
2022/01/20 10:02:59;;;;;;;10.17;4.60;;;;;;;18.76;50.88;101395.03;5049059;28;20326;-59
2022/01/20 10:05:48;;;;;;;6.60;4.00;;;;;;;18.74;50.73;101391.66;5049310;28;20772;-59
2022/01/20 10:08:21;;;;;;;10.73;4.20;;;;;;;18.75;50.73;101396.19;5049514;28;20430;-59
2022/01/20 10:10:56;;;;;;;8.60;4.20;;;;;;;18.76;50.72;101389.31;5048871;28;20453;-60
2022/01/20 10:13:23;;;;;;;7.00;3.97;;;;;;;18.80;50.43;101388.22;5049360;28;20480;-59
2022/01/20 10:15:56;;;;;;;8.40;3.90;;;;;;;18.74;51.16;101385.94;5049353;28;20410;-58
2022/01/20 10:18:21;;;;;;;6.40;4.13;;;;;;;18.74;51.55;101386.78;5049467;28;20440;-59
2022/01/20 10:20:53;;;;;;;6.47;3.80;;;;;;;18.76;51.18;101401.56;5048950;28;20407;-60
2022/01/20 10:23:34;;;;;;;6.00;3.73;;;;;;;18.72;51.32;101400.59;5049403;28;20254;-61
2022/01/20 10:26:06;;;;;;;6.67;3.70;;;;;;;18.78;50.80;101410.63;5049247;28;21101;-60
2022/01/20 10:29:03;;;;;;;6.93;4.30;;;;;;;18.75;50.96;101414.19;5049150;28;20525;-61
2022/01/20 10:31:55;;;;;;;8.10;4.63;;;;;;;18.77;51.08;101414.66;5049030;28;20938;-59
2022/01/20 10:34:31;;;;;;;7.93;4.00;;;;;;;18.74;50.99;101411.69;5029512;28;20445;-60
2022/01/20 10:37:06;;;;;;;7.73;4.37;;;;;;;18.74;51.32;101423.13;5049316;28;20449;-60
2022/01/20 10:39:39;;;;;;;7.20;4.07;;;;;;;18.72;51.42;101420.63;5048478;28;20467;-59
2022/01/20 10:42:07;;;;;;;5.10;3.60;;;;;;;18.75;51.13;101425.63;5049135;28;20430;-59
2022/01/20 10:44:46;;;;;;;5.33;3.43;;;;;;;18.73;51.66;101425.19;5048446;28;20834;-59
2022/01/20 10:47:16;;;;;;;6.33;3.73;;;;;;;18.75;51.11;101424.78;5049400;28;20415;-59
2022/01/20 10:49:41;;;;;;;6.60;3.67;;;;;;;18.71;51.18;101418.13;5045850;28;20422;-60
2022/01/20 10:52:08;;;;;;;5.73;3.80;;;;;;;18.76;51.20;101427.31;5049207;28;20987;-59
2022/01/20 10:54:39;;;;;;;5.80;3.93;;;;;;;18.74;51.33;101423.13;5048783;28;20210;-59
2022/01/20 10:57:05;;;;;;;4.93;3.20;;;;;;;18.74;51.85;101426.00;5048653;28;20464;-59
2022/01/20 10:59:31;;;;;;;5.20;3.07;;;;;;;18.73;51.78;101424.31;5048431;28;20465;-59
2022/01/20 11:02:07;;;;;;;5.47;3.77;;;;;;;18.74;51.81;101421.13;5048673;28;20253;-59
2022/01/20 11:04:33;;;;;;;4.50;3.40;;;;;;;18.72;51.75;101411.22;5048833;28;20494;-60
2022/01/20 11:07:01;;;;;;;5.27;3.33;;;;;;;18.77;51.79;101413.84;5030329;28;20438;-59
2022/01/20 11:09:28;;;;;;;7.53;3.83;;;;;;;18.76;51.37;101409.31;5048350;28;20180;-59
2022/01/20 11:11:54;;;;;;;4.90;3.17;;;;;;;18.73;51.71;101412.88;5048390;28;20461;-59
2022/01/20 11:14:20;;;;;;;6.13;3.40;;;;;;;18.74;51.75;101411.69;5019084;28;20437;-61
2022/01/20 11:16:48;;;;;;;6.07;3.67;;;;;;;18.74;51.36;101405.97;5035669;28;20415;-59
2022/01/20 11:19:17;;;;;;;5.80;3.60;;;;;;;18.73;51.57;101402.28;5028700;28;20631;-59
2022/01/20 11:21:44;;;;;;;6.10;3.87;;;;;;;18.73;51.46;101401.44;5045903;28;20407;-59
2022/01/20 11:24:36;;;;;;;4.60;3.10;;;;;;;18.75;51.50;101396.19;5031214;28;20418;-59
2022/01/20 11:27:02;;;;;;;4.80;3.03;;;;;;;18.72;51.78;101402.63;5059304;28;21082;-60
2022/01/20 11:29:47;;;;;;;6.13;3.90;;;;;;;18.72;51.33;101394.88;5045005;28;20414;-59
2022/01/20 11:32:23;;;;;;;5.50;3.60;;;;;;;18.72;51.79;101394.88;5042546;28;20224;-59
2022/01/20 11:34:58;;;;;;;6.33;3.73;;;;;;;18.70;52.26;101393.56;5038094;28;20424;-59
2022/01/20 11:37:25;;;;;;;8.50;3.70;;;;;;;18.74;51.90;101391.66;5030820;28;20414;-59
2022/01/20 11:39:53;;;;;;;7.90;3.57;;;;;;;18.70;52.01;101397.25;5030811;28;20429;-58
2022/01/20 11:42:24;;;;;;;5.80;2.87;;;;;;;18.70;51.76;101394.41;5047901;28;20422;-58
2022/01/20 11:44:49;;;;;;;7.43;3.77;;;;;;;18.70;51.63;101391.53;5030450;28;20513;-61
2022/01/20 11:47:15;;;;;;;5.07;3.67;;;;;;;18.69;51.78;101389.88;5048129;28;20759;-59
2022/01/20 11:49:43;;;;;;;5.23;3.27;;;;;;;18.70;51.78;101385.81;5048215;28;20183;-59
2022/01/20 11:52:09;;;;;;;9.53;3.30;;;;;;;18.69;51.91;101384.16;5048417;28;20238;-59
2022/01/20 11:54:35;;;;;;;6.40;3.50;;;;;;;18.69;51.88;101372.72;5048673;28;20449;-60
2022/01/20 11:57:21;;;;;;;6.40;3.20;;;;;;;18.68;52.16;101375.94;5048504;28;20187;-60
2022/01/20 11:59:54;;;;;;;5.50;3.40;;;;;;;18.70;51.79;101380.09;5047535;28;20421;-59
2022/01/20 12:02:28;;;;;;;5.20;3.40;;;;;;;18.70;51.57;101376.41;5030683;28;20470;-60
2022/01/20 12:04:53;;;;;;;4.30;2.80;;;;;;;18.72;51.59;101363.41;5048447;28;20838;-59
2022/01/20 12:07:32;;;;;;;4.13;2.90;;;;;;;18.70;52.21;101362.94;5049061;28;20464;-59
2022/01/20 12:10:27;;;;;;;6.10;3.37;;;;;;;18.69;51.69;101358.41;5051278;28;20206;-59
2022/01/20 12:12:53;;;;;;;5.10;3.40;;;;;;;18.67;52.05;101357.09;5019448;28;20867;-59
2022/01/20 12:15:21;;;;;;;4.40;3.00;;;;;;;18.66;52.32;101356.25;5051466;28;20478;-59
2022/01/20 12:17:50;;;;;;;5.30;3.00;;;;;;;18.75;51.53;101359.00;5051304;28;20771;-59
2022/01/20 12:20:15;;;;;;;4.70;2.73;;;;;;;18.71;51.78;101358.88;5050912;28;20426;-59
2022/01/20 12:22:41;;;;;;;5.43;3.20;;;;;;;18.70;51.92;101365.81;5051287;28;20428;-61
2022/01/20 12:25:07;;;;;;;7.00;3.23;;;;;;;18.68;51.98;101358.75;5052102;28;20172;-60
2022/01/20 12:27:33;;;;;;;4.33;2.60;;;;;;;18.69;51.85;101364.13;5051774;28;20176;-60